Time;durP1;ratioP1;P1;durP2;ratioP2;P2;SDS_P1;SDS_P2;PMS_P1;PMS_P2;Temp;Humidity;BMP_temperature;BMP_pressure;BME280_temperature;BME280_humidity;BME280_pressure;Samples;Min_cycle;Max_cycle;Signal;HPM_P1;HPM_P2
2022/03/31 00:01:05;;;;;;;;;;;7.20;99.90;;;5.68;80.54;99674.00;2566366;30;137814;-41
2022/03/31 00:03:34;;;;;;;;;;;7.20;99.90;;;5.69;80.54;99675.66;2567582;30;136775;-42
2022/03/31 00:06:01;;;;;;;;;;;7.20;99.90;;;5.68;79.96;99674.00;2567693;30;138346;-42
2022/03/31 00:08:29;;;;;;;;;;;7.20;99.90;;;5.63;80.04;99673.81;2565625;30;137298;-41
2022/03/31 00:10:56;;;;;;;;;;;7.20;99.90;;;5.56;80.47;99673.78;2567410;30;137310;-41
2022/03/31 00:13:29;;;;;;;;;;;7.10;99.90;;;5.56;81.76;99665.69;2568670;30;136989;-41
2022/03/31 00:15:58;;;;;;;;;;;7.10;99.90;;;5.55;81.21;99664.81;2567692;30;137945;-41
2022/03/31 00:18:29;;;;;;;;;;;7.10;99.90;;;5.62;81.23;99670.25;2566802;30;136779;-41
2022/03/31 00:20:57;;;;;;;;;;;7.10;99.90;;;5.67;80.87;99669.63;2567800;30;138347;-41
2022/03/31 01:21:58;;;;;;;;;;;7.20;99.90;;;5.36;82.17;99617.81;471495;30;3624846265;31
2022/03/31 01:24:26;;;;;;;;;;;6.90;99.90;;;5.42;81.87;99621.56;2568722;30;137409;-40
2022/03/31 01:26:53;;;;;;;;;;;7.00;99.90;;;5.33;82.19;99618.22;2571112;30;136845;-40
2022/03/31 01:29:23;;;;;;;;;;;6.90;99.90;;;5.41;81.28;99620.72;2569066;30;138227;-40
2022/03/31 01:31:50;;;;;;;;;;;6.90;99.90;;;5.38;81.56;99615.72;2569686;30;137722;-40
2022/03/31 01:34:18;;;;;;;;;;;6.90;99.90;;;5.33;81.81;99608.25;2566794;30;138353;-40
2022/03/31 01:36:45;;;;;;;;;;;6.90;99.90;;;5.38;82.05;99609.50;2568551;30;138137;-40
2022/03/31 01:39:13;;;;;;;;;;;6.90;99.90;;;5.32;82.39;99608.44;2569262;30;139022;-40
2022/03/31 01:41:40;;;;;;;;;;;6.90;99.90;;;5.31;82.34;99609.47;2568764;30;138194;-40
2022/03/31 01:44:08;;;;;;;;;;;6.80;99.90;;;5.33;81.92;99607.41;2569233;30;139166;-40
2022/03/31 01:46:35;;;;;;;;;;;6.80;99.90;;;5.35;81.91;99599.09;2569895;30;137161;-40
2022/03/31 01:49:03;;;;;;;;;;;6.80;99.90;;;5.36;81.85;99593.47;2569290;30;138415;-40
2022/03/31 01:51:31;;;;;;;;;;;6.90;99.90;;;5.38;80.92;99596.78;2568837;30;136981;-40
2022/03/31 01:53:58;;;;;;;;;;;6.90;99.90;;;5.26;82.13;99593.88;2570599;30;139377;-40
2022/03/31 01:56:26;;;;;;;;;;;6.80;99.90;;;5.26;82.74;99585.75;2569435;30;138167;-40
2022/03/31 01:58:53;;;;;;;;;;;6.80;99.90;;;5.29;82.61;99579.09;2567943;30;137186;-40
2022/03/31 02:01:20;;;;;;;;;;;6.90;99.90;;;5.28;82.41;99578.25;2569480;30;137129;-40
2022/03/31 02:03:48;;;;;;;;;;;6.80;99.90;;;5.38;83.22;99580.56;2567301;30;138274;-40
2022/03/31 02:06:16;;;;;;;;;;;6.90;99.90;;;5.31;82.75;99568.91;2569764;30;136743;-40
2022/03/31 02:08:43;;;;;;;;;;;6.90;99.90;;;5.25;83.60;99575.97;2569837;30;137622;-40
2022/03/31 02:11:12;;;;;;;;;;;6.80;99.90;;;5.26;83.40;99572.22;2568017;30;137929;-40
2022/03/31 02:13:39;;;;;;;;;;;6.80;99.90;;;5.21;83.14;99569.31;2569600;30;138123;-41
2022/03/31 02:16:08;;;;;;;;;;;6.80;99.90;;;5.23;83.04;99564.53;2569205;30;137059;-40
2022/03/31 02:18:36;;;;;;;;;;;6.80;99.90;;;5.25;83.72;99562.47;2568755;30;138081;-41
2022/03/31 02:21:03;;;;;;;;;;;6.80;99.90;;;5.16;85.29;99561.00;2568919;30;137889;-41
2022/03/31 02:23:31;;;;;;;;;;;6.70;99.90;;;5.26;86.24;99561.41;2570427;30;138182;-40
2022/03/31 02:25:58;;;;;;;;;;;6.80;99.90;;;5.25;86.63;99556.22;2567668;30;137442;-40
2022/03/31 02:28:26;;;;;;;;;;;6.80;99.90;;;5.25;86.04;99553.53;2568615;30;138088;-41
2022/03/31 02:30:53;;;;;;;;;;;6.80;99.90;;;5.20;86.84;99554.13;2571265;30;137944;-40
2022/03/31 02:33:21;;;;;;;;;;;6.70;99.90;;;5.20;87.68;99554.13;2568389;30;138899;-40
2022/03/31 02:35:49;;;;;;;;;;;6.70;99.90;;;5.20;86.90;99554.13;2567064;30;137489;-40
2022/03/31 02:38:16;;;;;;;;;;;6.70;99.90;;;5.27;87.49;99549.56;2571091;30;138200;-40
2022/03/31 02:40:43;;;;;;;;;;;6.80;99.90;;;5.32;87.94;99541.66;2569946;30;137082;-41
2022/03/31 02:43:12;;;;;;;;;;;6.80;99.90;;;5.32;88.00;99536.25;2570629;30;137341;-40
2022/03/31 02:45:39;;;;;;;;;;;6.80;99.90;;;5.25;88.20;99538.13;2567582;30;136745;-40
2022/03/31 02:48:07;;;;;;;;;;;6.80;99.90;;;5.18;88.85;99530.03;2570905;30;139189;-40
2022/03/31 02:50:35;;;;;;;;;;;6.70;99.90;;;5.18;90.28;99526.47;2570168;30;137294;-40
2022/03/31 02:55:48;;;;;;;;;;;6.70;99.90;;;5.26;89.03;99522.75;2569780;30;137984;-40
2022/03/31 02:58:15;;;;;;;;;;;6.80;99.90;;;5.19;90.27;99520.03;2571955;30;139057;-40
2022/03/31 03:00:43;;;;;;;;;;;6.70;99.90;;;5.17;90.31;99525.66;2567326;30;137675;-40
2022/03/31 03:03:11;;;;;;;;;;;6.70;99.90;;;5.23;90.15;99515.88;2569381;30;138167;-40
2022/03/31 03:05:41;;;;;;;;;;;6.70;99.90;;;5.22;90.14;99521.50;2570836;30;136913;-40
2022/03/31 03:08:09;;;;;;;;;;;6.80;99.90;;;5.17;92.61;99525.66;2568199;30;138379;-40
2022/03/31 03:10:37;;;;;;;;;;;6.70;99.90;;;5.12;93.29;99513.81;2568836;30;137150;-41
2022/03/31 03:13:04;;;;;;;;;;;6.70;99.90;;;5.13;94.19;99521.69;2567586;30;138468;-40
2022/03/31 03:15:32;;;;;;;;;;;6.70;99.90;;;5.12;95.23;99521.91;2571798;30;137956;-40
2022/03/31 03:17:59;;;;;;;;;;;6.70;99.90;;;5.12;95.88;99520.03;2569477;30;138225;-40
2022/03/31 03:20:27;;;;;;;;;;;6.70;99.90;;;5.08;96.71;99505.25;2568998;30;136908;-42
2022/03/31 03:22:55;;;;;;;;;;;6.60;99.90;;;5.11;97.12;99518.38;2569220;30;139029;-40
2022/03/31 03:25:23;;;;;;;;;;;6.60;99.90;;;5.12;97.38;99516.50;2568204;30;137375;-40
2022/03/31 03:27:52;;;;;;;;;;;6.70;99.90;;;5.15;98.23;99510.69;2569868;30;138139;-40
2022/03/31 03:30:20;;;;;;;;;;;6.70;99.90;;;5.17;98.40;99508.59;2569569;30;137167;-40
2022/03/31 03:32:48;;;;;;;;;;;6.60;99.90;;;5.15;98.68;99508.78;2570479;30;136661;-42
2022/03/31 03:35:16;;;;;;;;;;;6.70;99.90;;;5.25;99.85;99515.66;2570176;30;137787;-40
2022/03/31 03:37:44;;;;;;;;;;;6.70;99.90;;;5.21;100.00;99512.53;2569866;30;138600;-40
2022/03/31 03:40:13;;;;;;;;;;;6.70;99.90;;;5.28;100.00;99512.53;2569888;30;137270;-40
2022/03/31 03:42:41;;;;;;;;;;;6.80;99.90;;;5.29;100.00;99515.00;2568207;30;139035;-40
2022/03/31 03:45:13;;;;;;;;;;;6.80;99.90;;;5.24;100.00;99514.81;2569950;30;137825;-41
2022/03/31 03:47:40;;;;;;;;;;;6.80;99.90;;;5.21;100.00;99509.84;2570400;30;138484;-40
2022/03/31 03:50:09;;;;;;;;;;;6.70;99.90;;;5.27;100.00;99509.00;2568820;30;137181;-40
2022/03/31 03:52:37;;;;;;;;;;;6.70;99.90;;;5.19;100.00;99501.09;2568067;30;137899;-40
2022/03/31 03:55:05;;;;;;;;;;;6.70;99.90;;;5.21;100.00;99506.31;2567330;30;136669;-40
2022/03/31 03:57:33;;;;;;;;;;;6.70;99.90;;;5.20;100.00;99505.47;2570587;30;139025;-40
2022/03/31 04:00:01;;;;;;;;;;;6.70;99.90;;;5.17;100.00;99512.16;2571127;30;137178;-40
2022/03/31 04:02:31;;;;;;;;;;;6.70;99.90;;;5.12;100.00;99506.50;2569704;30;137235;-40
2022/03/31 04:04:58;;;;;;;;;;;6.70;99.90;;;5.14;100.00;99503.59;2570371;30;137182;-40
2022/03/31 04:07:25;;;;;;;;;;;6.70;99.90;;;5.06;100.00;99504.66;2570512;30;138229;-40
2022/03/31 04:09:53;;;;;;;;;;;6.60;99.90;;;5.09;100.00;99498.81;2568498;30;136950;-40
2022/03/31 04:12:20;;;;;;;;;;;6.60;99.90;;;5.06;100.00;99499.25;2568072;30;138175;-40
2022/03/31 04:14:48;;;;;;;;;;;6.60;99.90;;;5.07;100.00;99494.69;2569532;30;137300;-40
2022/03/31 04:17:16;;;;;;;;;;;6.60;99.90;;;5.07;100.00;99500.09;2568939;30;138199;-40
2022/03/31 04:19:43;;;;;;;;;;;6.60;99.90;;;5.02;100.00;99492.59;2570561;30;137230;-40
2022/03/31 04:22:11;;;;;;;;;;;6.60;99.90;;;5.07;100.00;99490.09;2569655;30;139216;-40
2022/03/31 04:24:39;;;;;;;;;;;6.60;99.90;;;5.11;100.00;99495.91;2570595;30;138035;-40
2022/03/31 04:27:06;;;;;;;;;;;6.60;99.90;;;5.06;100.00;99493.84;2568896;30;137439;-40
2022/03/31 04:29:34;;;;;;;;;;;6.60;99.90;;;5.08;100.00;99499.84;2565938;30;137978;-40
2022/03/31 04:32:02;;;;;;;;;;;6.60;99.90;;;5.03;100.00;99499.66;2570596;30;138374;-40
2022/03/31 04:34:29;;;;;;;;;;;6.60;99.90;;;4.99;100.00;99499.22;2568709;30;137870;-40
2022/03/31 04:36:56;;;;;;;;;;;6.60;99.90;;;4.98;100.00;99494.88;2568217;30;138346;-40
2022/03/31 04:39:24;;;;;;;;;;;6.50;99.90;;;4.98;100.00;99489.47;2568293;30;137308;-40
2022/03/31 04:41:51;;;;;;;;;;;6.50;99.90;;;4.96;100.00;99493.44;2568757;30;137909;-40
2022/03/31 04:44:19;;;;;;;;;;;6.50;99.90;;;4.97;100.00;99492.38;2568651;30;137067;-39
2022/03/31 04:46:47;;;;;;;;;;;6.50;99.90;;;4.88;100.00;99492.56;2567880;30;137792;-40
2022/03/31 04:49:15;;;;;;;;;;;6.40;99.90;;;4.82;100.00;99489.91;2569641;30;136788;-40
2022/03/31 04:51:42;;;;;;;;;;;6.40;99.90;;;4.85;100.00;99495.69;2567878;30;138365;-40
2022/03/31 04:54:09;;;;;;;;;;;6.40;99.90;;;4.81;100.00;99491.75;2569240;30;137777;-40
2022/03/31 04:56:39;;;;;;;;;;;6.40;99.90;;;4.80;100.00;99489.28;2568591;30;139171;-40
2022/03/31 04:59:06;;;;;;;;;;;6.40;99.90;;;4.79;100.00;99495.72;2569726;30;137367;-40
2022/03/31 05:01:34;;;;;;;;;;;6.30;99.90;;;4.82;100.00;99492.59;2569239;30;138504;-40
2022/03/31 05:04:01;;;;;;;;;;;6.40;99.90;;;4.81;100.00;99491.75;2570367;30;137970;-40
2022/03/31 05:06:29;;;;;;;;;;;6.40;99.90;;;4.78;100.00;99496.75;2569535;30;138993;-40
2022/03/31 05:08:57;;;;;;;;;;;6.30;99.90;;;4.77;100.00;99495.06;2566994;30;137245;-39
2022/03/31 05:11:24;;;;;;;;;;;6.30;99.90;;;4.74;100.00;99490.94;2571444;30;138411;-40
2022/03/31 05:13:52;;;;;;;;;;;6.30;99.90;;;4.72;100.00;99493.81;2570277;30;136988;-40
2022/03/31 05:16:19;;;;;;;;;;;6.30;99.90;;;4.70;100.00;99495.91;2566088;30;138243;-39
2022/03/31 05:18:47;;;;;;;;;;;6.30;99.90;;;4.65;100.00;99494.88;2568660;30;136981;-40
2022/03/31 05:21:15;;;;;;;;;;;6.20;99.90;;;4.61;100.00;99492.56;2570334;30;138155;-40
2022/03/31 05:23:42;;;;;;;;;;;6.20;99.90;;;4.67;100.00;99490.91;2569328;30;137143;-40
2022/03/31 05:26:10;;;;;;;;;;;6.20;99.90;;;4.64;100.00;99494.03;2568449;30;137307;-40
2022/03/31 05:28:38;;;;;;;;;;;6.20;99.90;;;4.64;100.00;99491.31;2569108;30;137121;-40
2022/03/31 05:31:06;;;;;;;;;;;6.20;99.90;;;4.59;100.00;99485.72;2570025;30;138468;-40
2022/03/31 05:33:34;;;;;;;;;;;6.10;99.90;;;4.60;100.00;99488.19;2569102;30;137710;-42
2022/03/31 05:36:03;;;;;;;;;;;6.20;99.90;;;4.64;100.00;99485.06;2568954;30;137878;-40
2022/03/31 05:38:30;;;;;;;;;;;6.20;99.90;;;4.61;100.00;99478.22;2570532;30;136927;-40
2022/03/31 05:40:57;;;;;;;;;;;6.20;99.90;;;4.58;100.00;99484.06;2566199;30;137908;-40
2022/03/31 05:43:25;;;;;;;;;;;6.20;99.90;;;4.62;100.00;99482.59;2570100;30;136962;-40
2022/03/31 05:45:52;;;;;;;;;;;6.20;99.90;;;4.65;100.00;99484.88;2569973;30;137173;-40
2022/03/31 05:48:20;;;;;;;;;;;6.20;99.90;;;4.68;100.00;99489.88;2569442;30;137291;-40
2022/03/31 05:50:47;;;;;;;;;;;6.20;99.90;;;4.73;100.00;99481.97;2570376;30;138245;-40
2022/03/31 05:53:15;;;;;;;;;;;6.20;99.90;;;4.75;100.00;99485.28;2570271;30;137172;-40
2022/03/31 05:55:43;;;;;;;;;;;6.30;99.90;;;4.74;100.00;99482.81;2569423;30;139231;-40
2022/03/31 05:58:10;;;;;;;;;;;6.30;99.90;;;4.72;100.00;99495.72;2571098;30;137325;-40
2022/03/31 06:00:38;;;;;;;;;;;6.20;99.90;;;4.74;100.00;99490.94;2568566;30;138815;-40
2022/03/31 06:03:06;;;;;;;;;;;6.20;99.90;;;4.81;100.00;99490.94;2569157;30;137389;-40
2022/03/31 06:05:34;;;;;;;;;;;6.30;99.90;;;4.87;100.00;99493.63;2570273;30;139208;-40
2022/03/31 06:08:01;;;;;;;;;;;6.30;99.90;;;4.89;100.00;99491.53;2569971;30;137246;-40
2022/03/31 06:10:29;;;;;;;;;;;6.40;99.90;;;4.87;100.00;99492.81;2569593;30;139343;-41
2022/03/31 06:12:57;;;;;;;;;;;6.40;99.90;;;4.88;100.00;99494.47;2570571;30;137401;-40
2022/03/31 06:15:25;;;;;;;;;;;6.40;99.90;;;4.95;100.00;99494.47;2571225;30;138312;-40
2022/03/31 06:17:52;;;;;;;;;;;6.40;99.90;;;4.93;100.00;99494.66;2567143;30;137249;-40
2022/03/31 06:20:19;;;;;;;;;;;6.40;99.90;;;4.97;100.00;99500.50;2569918;30;137379;-40
2022/03/31 06:22:47;;;;;;;;;;;6.40;99.90;;;4.97;100.00;99497.78;2568936;30;137552;-40
2022/03/31 06:25:14;;;;;;;;;;;6.40;99.90;;;5.05;100.00;99494.88;2570961;30;139242;-40
2022/03/31 06:27:44;;;;;;;;;;;6.50;99.90;;;5.04;100.00;99496.75;2568733;30;137035;-40
2022/03/31 06:30:12;;;;;;;;;;;6.50;99.90;;;5.09;100.00;99496.13;2569368;30;139072;-40
2022/03/31 06:32:40;;;;;;;;;;;6.60;99.90;;;5.20;100.00;99497.34;2571988;30;136938;-40
2022/03/31 06:35:11;;;;;;;;;;;6.60;99.90;;;5.16;100.00;99496.94;2569595;30;138472;-40
2022/03/31 06:37:39;;;;;;;;;;;6.70;99.90;;;5.17;100.00;99492.38;2569658;30;137385;-41
2022/03/31 06:40:09;;;;;;;;;;;6.70;99.90;;;5.21;100.00;99498.19;2570217;30;139116;-40
2022/03/31 06:42:37;;;;;;;;;;;6.70;99.90;;;5.21;100.00;99501.72;2567965;30;138954;-40
2022/03/31 06:45:08;;;;;;;;;;;6.70;99.90;;;5.24;100.00;99501.31;2568469;30;139273;-40
2022/03/31 06:47:56;;;;;;;;;;;6.70;99.90;;;5.29;100.00;99506.91;2569991;30;137014;-40
2022/03/31 06:50:27;;;;;;;;;;;6.70;99.90;;;5.39;100.00;99508.38;2568543;30;139020;-40
2022/03/31 06:52:56;;;;;;;;;;;6.80;99.90;;;5.28;100.00;99507.94;2570973;30;138171;-41
2022/03/31 06:55:24;;;;;;;;;;;6.70;99.90;;;5.24;100.00;99512.13;2566707;30;138208;-39
2022/03/31 06:57:51;;;;;;;;;;;6.70;99.90;;;5.25;100.00;99508.38;2569216;30;137002;-40
2022/03/31 07:00:18;;;;;;;;;;;6.70;99.90;;;5.31;100.00;99501.31;2569864;30;138292;-40
2022/03/31 07:02:46;;;;;;;;;;;6.80;99.90;;;5.25;100.00;99499.44;2569797;30;138438;-40
2022/03/31 07:05:13;;;;;;;;;;;6.70;99.90;;;5.36;100.00;99497.97;2569177;30;138317;-40
2022/03/31 07:07:42;;;;;;;;;;;6.80;99.90;;;5.27;100.00;99500.88;2569533;30;137877;-40
2022/03/31 07:10:10;;;;;;;;;;;6.70;99.90;;;5.31;100.00;99498.59;2570142;30;139199;-40
2022/03/31 07:12:39;;;;;;;;;;;6.80;99.90;;;5.37;100.00;99496.94;2570924;30;138058;-40
2022/03/31 07:15:08;;;;;;;;;;;6.80;99.90;;;5.37;100.00;99494.22;2567828;30;137334;-42
2022/03/31 07:17:36;;;;;;;;;;;6.80;99.90;;;5.28;100.00;99494.41;2569687;30;136833;-41
2022/03/31 07:20:05;;;;;;;;;;;6.80;99.90;;;5.22;100.00;99495.28;2569739;30;138359;-39
2022/03/31 07:22:32;;;;;;;;;;;6.70;99.90;;;5.07;100.00;99483.88;2566914;30;137263;-42
2022/03/31 07:25:01;;;;;;;;;;;6.70;99.90;;;5.21;100.00;99495.50;2568224;30;137756;-41
2022/03/31 07:27:28;;;;;;;;;;;6.70;99.90;;;5.04;100.00;99496.75;2567794;30;137864;-41
2022/03/31 07:29:56;;;;;;;;;;;6.60;99.90;;;5.20;100.00;99491.94;2568374;30;138400;-42
2022/03/31 07:32:23;;;;;;;;;;;6.70;99.90;;;5.12;100.00;99492.16;2567952;30;138090;-41
2022/03/31 07:34:50;;;;;;;;;;;6.60;99.90;;;5.24;100.00;99489.66;2567790;30;139067;-41
2022/03/31 07:37:18;;;;;;;;;;;6.70;99.90;;;5.30;100.00;99491.53;2568040;30;137702;-41
2022/03/31 07:39:45;;;;;;;;;;;6.70;99.90;;;5.39;100.00;99489.44;2568488;30;138002;-41
2022/03/31 07:42:14;;;;;;;;;;;6.80;99.90;;;5.37;100.00;99489.63;2568439;30;136978;-42
2022/03/31 07:44:42;;;;;;;;;;;6.80;99.90;;;5.46;100.00;99493.78;2567952;30;138536;-41
2022/03/31 07:47:10;;;;;;;;;;;6.90;99.90;;;5.47;100.00;99489.19;2568755;30;137262;-41
2022/03/31 07:49:37;;;;;;;;;;;6.90;99.90;;;5.46;100.00;99487.53;2566877;30;137308;-41
2022/03/31 07:52:05;;;;;;;;;;;6.90;99.90;;;5.60;100.00;99493.75;2568988;30;137175;-42
2022/03/31 07:54:48;;;;;;;;;;;7.00;99.90;;;5.59;100.00;99486.66;2566088;30;139730;-41
2022/03/31 07:57:16;;;;;;;;;;;7.00;99.90;;;5.64;100.00;99488.75;2568933;30;137036;-41
2022/03/31 07:59:44;;;;;;;;;;;7.00;99.90;;;5.65;100.00;99483.09;2568608;30;138196;-41
2022/03/31 08:02:11;;;;;;;;;;;7.10;99.90;;;5.76;100.00;99479.75;2566981;30;137327;-41
2022/03/31 08:04:39;;;;;;;;;;;7.20;99.90;;;5.77;100.00;99488.69;2568198;30;138220;-41
2022/03/31 08:07:06;;;;;;;;;;;7.20;99.90;;;5.85;100.00;99488.47;2567708;30;137056;-41
2022/03/31 08:09:34;;;;;;;;;;;7.20;99.90;;;5.84;100.00;99484.09;2568730;30;139055;-42
2022/03/31 08:12:01;;;;;;;;;;;7.30;99.90;;;5.82;100.00;99483.47;2568994;30;137343;-41
2022/03/31 08:14:29;;;;;;;;;;;7.30;99.90;;;5.75;100.00;99480.81;2567038;30;138964;-41
2022/03/31 08:16:57;;;;;;;;;;;7.20;99.90;;;5.88;100.00;99484.50;2565704;30;138114;-41
2022/03/31 08:19:24;;;;;;;;;;;7.30;99.90;;;6.01;100.00;99483.63;2568013;30;137491;-42
2022/03/31 08:21:51;;;;;;;;;;;7.40;99.90;;;6.16;100.00;99489.63;2568362;30;137944;-41
2022/03/31 08:24:19;;;;;;;;;;;7.50;99.90;;;6.17;100.00;99483.16;2568028;30;139014;-41
2022/03/31 08:26:46;;;;;;;;;;;7.50;99.90;;;6.16;100.00;99481.50;2566507;30;137361;-41
2022/03/31 08:29:14;;;;;;;;;;;7.60;99.90;;;6.26;100.00;99482.88;2567843;30;138958;-41
2022/03/31 08:31:41;;;;;;;;;;;7.60;99.90;;;6.24;100.00;99484.97;2569175;30;137188;-41
2022/03/31 08:34:09;;;;;;;;;;;7.60;99.90;;;6.38;100.00;99475.75;2566275;30;138129;-41
2022/03/31 08:36:37;;;;;;;;;;;7.80;99.90;;;6.44;100.00;99483.00;2568156;30;137121;-41
2022/03/31 08:39:06;;;;;;;;;;;7.80;99.90;;;6.39;100.00;99485.53;2568706;30;138496;-41
2022/03/31 08:41:33;;;;;;;;;;;7.80;99.90;;;6.39;100.00;99493.66;2569082;30;137290;-41
2022/03/31 08:44:01;;;;;;;;;;;7.90;99.90;;;6.38;100.00;99494.72;2569841;30;138298;-41
2022/03/31 08:46:34;;;;;;;;;;;7.80;99.90;;;6.27;100.00;99492.66;2567084;30;137366;-39
2022/03/31 08:49:02;;;;;;;;;;;7.80;99.90;;;6.21;100.00;99494.34;2568335;30;137371;-41
2022/03/31 08:51:30;;;;;;;;;;;7.80;99.90;;;6.14;100.00;99493.56;2567454;30;137344;-41
2022/03/31 08:53:57;;;;;;;;;;;7.70;99.90;;;6.18;100.00;99500.22;2568758;30;138454;-41
2022/03/31 08:56:25;;;;;;;;;;;7.70;99.90;;;6.07;100.00;99495.50;2567453;30;137503;-41
2022/03/31 08:59:12;;;;;;;;;;;7.60;99.90;;;6.06;100.00;99493.81;2567688;30;137433;-41
2022/03/31 09:01:40;;;;;;;;;;;7.60;99.90;;;6.15;100.00;99495.22;2567226;30;137405;-41
2022/03/31 09:04:21;;;;;;;;;;;7.60;99.90;;;6.27;100.00;99496.22;2567879;30;138047;-41
2022/03/31 09:07:03;;;;;;;;;;;7.60;99.90;;;6.38;100.00;99492.00;2569100;30;137173;-41
2022/03/31 09:09:32;;;;;;;;;;;7.80;99.90;;;6.43;100.00;99496.75;2568495;30;137254;-41
2022/03/31 09:11:59;;;;;;;;;;;7.80;99.90;;;6.47;100.00;99493.41;2569562;30;137041;-41
2022/03/31 09:14:47;;;;;;;;;;;7.90;99.90;;;6.55;100.00;99497.72;2570368;30;138317;-41
2022/03/31 09:17:17;;;;;;;;;;;7.90;99.90;;;6.62;100.00;99493.09;2568722;30;137831;-41
2022/03/31 09:19:44;;;;;;;;;;;8.00;99.90;;;6.72;100.00;99495.31;2569572;30;139004;-41
2022/03/31 09:22:12;;;;;;;;;;;8.00;99.90;;;6.79;100.00;99491.72;2568733;30;137335;-41
2022/03/31 09:24:39;;;;;;;;;;;8.10;99.90;;;6.85;100.00;99494.38;2569089;30;139294;-41
2022/03/31 09:27:07;;;;;;;;;;;8.20;99.90;;;6.96;99.03;99492.00;2570387;30;136653;-41
2022/03/31 09:29:34;;;;;;;;;;;8.20;99.90;;;7.05;100.00;99488.78;2567403;30;138778;-41
2022/03/31 09:32:07;;;;;;;;;;;8.30;99.90;;;7.18;100.00;99489.75;2568282;30;136896;-41
2022/03/31 09:34:40;;;;;;;;;;;8.40;99.90;;;7.20;100.00;99491.16;2569204;30;138404;-41
2022/03/31 09:37:08;;;;;;;;;;;8.40;99.90;;;7.26;100.00;99494.88;2568401;30;137328;-41
2022/03/31 09:39:36;;;;;;;;;;;8.50;99.90;;;7.29;100.00;99489.00;2567779;30;138103;-41
2022/03/31 09:42:13;;;;;;;;;;;8.50;99.90;;;7.36;100.00;99491.66;2567552;30;138023;-41
2022/03/31 09:44:42;;;;;;;;;;;8.60;99.90;;;7.43;100.00;99494.31;2568759;30;137121;-41
2022/03/31 09:47:10;;;;;;;;;;;8.60;99.90;;;7.40;95.73;99495.56;2566892;30;137444;-41
2022/03/31 09:49:38;;;;;;;;;;;8.70;99.90;;;7.39;95.80;99493.91;2566963;30;137077;-41
2022/03/31 09:52:10;;;;;;;;;;;8.70;99.90;;;7.33;94.04;99495.63;2568716;30;137150;-41
2022/03/31 09:54:56;;;;;;;;;;;8.70;99.90;;;7.22;93.07;99490.94;2567281;30;138140;-41
2022/03/31 09:57:24;;;;;;;;;;;8.70;99.90;;;7.15;94.49;99498.28;2567116;30;137466;-41
2022/03/31 09:59:53;;;;;;;;;;;8.50;99.90;;;7.10;98.34;99492.72;2569281;30;138890;-42
2022/03/31 10:02:23;;;;;;;;;;;8.50;99.90;;;7.04;99.06;99492.56;2569719;30;137367;-41
2022/03/31 10:04:51;;;;;;;;;;;8.40;99.90;;;7.01;96.18;99498.44;2568245;30;137812;-41
2022/03/31 10:07:19;;;;;;;;;;;8.40;99.90;;;7.00;98.29;99495.91;2569130;30;136892;-41
2022/03/31 10:09:46;;;;;;;;;;;8.40;99.90;;;6.85;95.54;99488.97;2567936;30;138181;-41
2022/03/31 10:12:35;;;;;;;;;;;8.30;99.90;;;6.86;99.68;99497.91;2568040;30;137032;-41
2022/03/31 10:15:08;;;;;;;;;;;8.20;99.90;;;6.79;98.04;99491.72;2565142;30;139725;-41
2022/03/31 10:17:37;;;;;;;;;;;8.20;99.90;;;6.70;100.00;99496.56;2568969;30;137168;-41
2022/03/31 10:20:12;;;;;;;;;;;8.10;99.90;;;6.66;100.00;99496.19;2569471;30;137447;-41
2022/03/31 10:25:37;;;;;;;;;;;8.00;99.90;;;6.56;100.00;99493.13;2568393;30;138442;-41
2022/03/31 10:28:23;;;;;;;;;;;8.00;99.90;;;6.47;100.00;99506.94;2569092;30;137150;-41
2022/03/31 10:30:59;;;;;;;;;;;7.90;99.90;;;6.42;100.00;99500.50;2569458;30;138400;-42
2022/03/31 10:33:37;;;;;;;;;;;7.80;99.90;;;6.36;100.00;99496.78;2568656;30;137753;-41
2022/03/31 10:36:10;;;;;;;;;;;7.80;99.90;;;6.29;100.00;99496.84;2568052;30;137581;-41
2022/03/31 10:38:51;;;;;;;;;;;7.70;99.90;;;6.26;100.00;99496.44;2568938;30;137363;-41
2022/03/31 10:41:18;;;;;;;;;;;7.70;99.90;;;6.25;100.00;99495.63;2568079;30;138954;-41
2022/03/31 10:43:48;;;;;;;;;;;7.70;99.90;;;6.26;100.00;99491.00;2569171;30;136926;-41
2022/03/31 10:46:17;;;;;;;;;;;7.60;99.90;;;6.21;100.00;99488.94;2567770;30;138432;-42
2022/03/31 10:48:50;;;;;;;;;;;7.60;99.90;;;6.18;100.00;99490.22;2568663;30;137030;-41
2022/03/31 10:51:18;;;;;;;;;;;7.60;99.90;;;6.23;100.00;99483.31;2568242;30;138906;-42
2022/03/31 10:53:49;;;;;;;;;;;7.60;99.90;;;6.26;100.00;99485.59;2568202;30;137013;-41
2022/03/31 10:56:19;;;;;;;;;;;7.60;99.90;;;6.28;100.00;99491.63;2567264;30;138341;-42
2022/03/31 10:58:49;;;;;;;;;;;7.60;99.90;;;6.30;100.00;99490.38;2569817;30;136939;-41
2022/03/31 11:01:17;;;;;;;;;;;7.70;99.90;;;6.32;100.00;99480.16;2569823;30;138249;-41
2022/03/31 11:03:49;;;;;;;;;;;7.70;99.90;;;6.36;100.00;99479.72;2568370;30;137116;-42
2022/03/31 11:06:20;;;;;;;;;;;7.70;99.90;;;6.35;100.00;99470.72;2567853;30;138275;-41
2022/03/31 11:08:49;;;;;;;;;;;7.70;99.90;;;6.36;100.00;99477.81;2566694;30;137661;-41
2022/03/31 11:11:22;;;;;;;;;;;7.70;99.90;;;6.39;100.00;99481.97;2568174;30;138574;-41
2022/03/31 11:13:51;;;;;;;;;;;7.70;99.90;;;6.38;100.00;99474.91;2567970;30;138026;-42
2022/03/31 11:16:18;;;;;;;;;;;7.70;99.90;;;6.40;100.00;99491.78;2566862;30;139224;-41
2022/03/31 11:18:55;;;;;;;;;;;7.70;99.90;;;6.36;100.00;99485.13;2568285;30;137786;-42
2022/03/31 11:21:24;;;;;;;;;;;7.70;99.90;;;6.34;100.00;99477.19;2568447;30;138036;-41
2022/03/31 11:23:53;;;;;;;;;;;7.70;99.90;;;6.36;100.00;99475.09;2569083;30;137026;-41
2022/03/31 11:26:31;;;;;;;;;;;7.70;99.90;;;6.39;100.00;99474.69;2568489;30;137298;-42
2022/03/31 11:29:01;;;;;;;;;;;7.70;99.90;;;6.35;100.00;99478.88;2568487;30;136653;-42
2022/03/31 11:31:28;;;;;;;;;;;7.70;99.90;;;6.40;100.00;99464.69;2568279;30;139195;-41
2022/03/31 11:33:56;;;;;;;;;;;7.70;99.90;;;6.38;100.00;99466.78;2567601;30;137556;-42
2022/03/31 11:36:25;;;;;;;;;;;7.70;99.90;;;6.34;100.00;99460.94;2568971;30;138593;-42
2022/03/31 11:38:59;;;;;;;;;;;7.70;99.90;;;6.33;100.00;99464.72;2566683;30;136669;-41
2022/03/31 11:41:38;;;;;;;;;;;7.70;99.90;;;6.43;100.00;99464.22;2567818;30;139009;-41
2022/03/31 11:44:19;;;;;;;;;;;7.70;99.90;;;6.40;100.00;99457.38;2568555;30;137665;-41
2022/03/31 11:46:49;;;;;;;;;;;7.80;99.90;;;6.41;100.00;99475.31;2566834;30;138181;-41
2022/03/31 11:49:18;;;;;;;;;;;7.70;99.90;;;6.43;100.00;99464.22;2568487;30;136994;-42
2022/03/31 11:51:51;;;;;;;;;;;7.80;99.90;;;6.40;100.00;99460.09;2566848;30;137452;-41
2022/03/31 11:54:20;;;;;;;;;;;7.80;99.90;;;6.38;100.00;99464.91;2568989;30;137374;-41
2022/03/31 11:56:48;;;;;;;;;;;7.70;99.90;;;6.41;100.00;99466.34;2568947;30;137879;-41
2022/03/31 11:59:21;;;;;;;;;;;7.70;99.90;;;6.39;100.00;99455.72;2568555;30;136921;-41
2022/03/31 12:01:48;;;;;;;;;;;7.70;99.90;;;6.44;100.00;99455.91;2566707;30;137660;-41
2022/03/31 12:04:18;;;;;;;;;;;7.80;99.90;;;6.46;100.00;99464.63;2568358;30;137015;-40
2022/03/31 12:06:47;;;;;;;;;;;7.80;99.90;;;6.46;100.00;99456.50;2568228;30;137902;-41
2022/03/31 12:09:15;;;;;;;;;;;7.80;99.90;;;6.51;100.00;99449.59;2565836;30;137224;-41
2022/03/31 12:11:43;;;;;;;;;;;7.80;99.90;;;6.52;100.00;99454.81;2568037;30;138547;-41
2022/03/31 12:14:10;;;;;;;;;;;7.80;99.90;;;6.52;100.00;99449.41;2568806;30;136991;-41
2022/03/31 12:16:42;;;;;;;;;;;7.90;99.90;;;6.59;100.00;99454.75;2568761;30;138465;-41
2022/03/31 12:19:10;;;;;;;;;;;7.90;99.90;;;6.67;100.00;99451.78;2568769;30;137044;-41
2022/03/31 12:21:46;;;;;;;;;;;8.00;99.90;;;6.73;100.00;99453.59;2566278;30;138221;-41
2022/03/31 12:24:14;;;;;;;;;;;8.00;99.90;;;6.80;100.00;99453.56;2568135;30;137458;-41
2022/03/31 12:26:54;;;;;;;;;;;8.10;99.90;;;6.74;100.00;99449.00;2567487;30;137220;-41
2022/03/31 12:29:23;;;;;;;;;;;8.00;99.90;;;6.74;100.00;99444.41;2569226;30;136894;-41
2022/03/31 12:32:02;;;;;;;;;;;8.10;99.90;;;6.80;100.00;99452.72;2567739;30;138283;-41